Latest Coastal Weather Observations for Port Kembla Harbour

IDN60701

Issued at 3:31 am EST Monday 25 May 2015 (issued every 10 minutes, with the page automatically refreshed every 10 minutes)

About coastal observations | Map of coastal stations | Coastal observations for NSW | Marine services | Other Formats
Station Details ID: 068253 Name: PORT KEMBLA NTC AWS Lat: -34.47 Lon: 150.91 Height: 0.0 m
Data from the previous 72 hours. | See also: Recent months for locations in New South Wales
Date/Time
EST
Temp

°C
Wind Pressure Rain
since 9am
mm
Weather Cloud Vis
km
Sea
Height
m
Swell
Dir
 
Speed
knots
Gust
knots
hPa Trend Height
m
Period
s
Dir
25/03:30am 14.3 W 6 8 1030.1 - - - - - - - - -
25/03:00am 14.4 W 6 7 1030.4 - - - - - - - - -
25/02:30am 13.5 W 6 8 1030.7 - - - - - - - - -
25/02:00am 13.7 W 7 9 1030.9 - - - - - - - - -
25/01:30am 13.3 WSW 5 7 1031.0 - - - - - - - - -
25/01:00am 13.0 WSW 4 6 1031.0 - - - - - - - - -
25/12:30am 13.7 W 5 6 1031.2 - - - - - - - - -
25/12:00am 13.8 W 5 7 1031.5 - - - - - - - - -
 
Date/Time
EST
Temp

°C
Wind Pressure Rain
since 9am
mm
Weather Cloud Vis
km
Sea
Height
m
Swell
Dir
 
Speed
knots
Gust
knots
hPa Trend Height
m
Period
s
Dir
24/11:30pm 13.3 W 4 5 1031.5 - - - - - - - - -
24/11:00pm 12.8 SW 3 5 1031.6 - - - - - - - - -
24/10:30pm 12.4 SW 5 6 1031.8 - - - - - - - - -
24/10:00pm 13.2 WSW 5 7 1031.6 - - - - - - - - -
24/09:30pm 12.5 SW 3 4 1031.5 - - - - - - - - -
24/09:00pm 12.7 WSW 4 5 1031.5 - - - - - - - - -
24/08:30pm 12.8 WSW 5 6 1031.6 - - - - - - - - -
24/08:00pm 12.7 WSW 4 5 1031.5 - - - - - - - - -
24/07:30pm 13.4 WSW 4 5 1031.2 - - - - - - - - -
24/07:00pm 13.8 WSW 4 5 1031.2 - - - - - - - - -
24/06:30pm 14.2 WSW 4 5 1031.2 - - - - - - - - -
24/06:00pm 14.8 W 4 5 1031.1 - - - - - - - - -
24/05:30pm 17.3 NE 3 5 1030.8 - - - - - - - - -
24/05:00pm 17.3 ENE 3 6 1030.5 - - - - - - - - -
24/04:30pm 17.3 NE 3 5 1030.4 - - - - - - - - -
24/04:00pm 17.2 ENE 3 5 1030.2 - - - - - - - - -
24/03:30pm 17.2 ENE 3 5 1030.0 - - - - - - - - -
24/03:00pm 17.3 ENE 3 4 1030.2 - - - - - - - - -
24/02:30pm 17.0 E 2 4 1030.3 - - - - - - - - -
24/02:00pm 17.1 E 3 4 1030.3 - - - - - - - - -
24/01:30pm 16.7 ESE 4 6 1030.2 - - - - - - - - -
24/01:00pm 16.8 SE 3 5 1030.4 - - - - - - - - -
24/12:30pm 17.2 SSW 2 3 1030.5 - - - - - - - - -
24/12:00pm 16.9 SSE 2 5 1031.0 - - - - - - - - -
24/11:30am 16.5 S 3 8 1031.4 - - - - - - - - -
24/11:00am 16.2 SSW 4 8 1031.6 - - - - - - - - -
24/10:30am 16.0 SW 5 9 1031.8 - - - - - - - - -
24/10:00am 15.3 SW 6 7 1032.0 - - - - - - - - -
24/09:30am 14.7 WSW 7 9 1032.0 - - - - - - - - -
24/09:00am 14.0 SW 4 6 1031.8 - - - - - - - - -
24/08:30am 13.1 WSW 3 5 1031.6 - - - - - - - - -
24/08:00am 11.9 WSW 4 5 1031.3 - - - - - - - - -
24/07:30am 11.4 WSW 5 6 1030.8 - - - - - - - - -
24/07:00am 11.7 W 7 8 1030.3 - - - - - - - - -
24/06:30am 11.6 W 6 8 1030.2 - - - - - - - - -
24/06:00am 11.3 W 5 6 1029.9 - - - - - - - - -
24/05:30am 11.1 WSW 5 6 1029.8 - - - - - - - - -
24/05:00am 10.7 WSW 5 6 1029.4 - - - - - - - - -
24/04:30am 11.1 WSW 5 7 1029.4 - - - - - - - - -
24/04:00am 11.3 WSW 4 5 1029.2 - - - - - - - - -
24/03:30am 11.5 W 5 6 1029.0 - - - - - - - - -
24/03:00am 11.3 WSW 4 5 1029.1 - - - - - - - - -
24/02:30am 11.7 W 5 6 1029.1 - - - - - - - - -
24/02:00am 11.6 W 5 6 1029.2 - - - - - - - - -
24/01:30am 11.5 WSW 5 6 1029.2 - - - - - - - - -
24/01:00am 11.8 WSW 5 6 1029.2 - - - - - - - - -
24/12:30am 11.6 WSW 6 7 1029.2 - - - - - - - - -
24/12:00am 11.3 SW 6 7 1029.2 - - - - - - - - -
 
Date/Time
EST
Temp

°C
Wind Pressure Rain
since 9am
mm
Weather Cloud Vis
km
Sea
Height
m
Swell
Dir
 
Speed
knots
Gust
knots
hPa Trend Height
m
Period
s
Dir
23/11:30pm 11.8 SW 4 5 1029.2 - - - - - - - - -
23/11:00pm 12.8 WSW 5 7 1029.2 - - - - - - - - -
23/10:30pm 12.5 WSW 5 6 1029.2 - - - - - - - - -
23/10:00pm 13.1 WSW 5 7 1029.3 - - - - - - - - -
23/09:30pm 13.2 WSW 7 8 1029.5 - - - - - - - - -
23/09:00pm 13.1 W 7 9 1029.5 - - - - - - - - -
23/08:30pm 13.3 WSW 7 8 1029.5 - - - - - - - - -
23/08:00pm 12.8 WSW 5 7 1029.4 - - - - - - - - -
23/07:30pm 12.8 WSW 6 9 1029.4 - - - - - - - - -
23/07:00pm 13.6 WSW 7 9 1029.3 - - - - - - - - -
23/06:30pm 13.9 WSW 7 10 1029.1 - - - - - - - - -
23/06:00pm 14.8 SW 7 10 1029.0 - - - - - - - - -
23/05:30pm 15.3 SW 6 10 1028.6 - - - - - - - - -
23/05:00pm 15.4 SSW 4 9 1028.5 - - - - - - - - -
23/04:30pm 15.8 SSW 5 10 1028.5 - - - - - - - - -
23/04:00pm 15.9 S 5 9 1028.3 - - - - - - - - -
23/03:30pm 16.2 S 4 9 1028.1 - - - - - - - - -
23/03:00pm 16.3 SSE 5 10 1028.0 - - - - - - - - -
23/02:30pm 16.5 S 6 10 1027.9 - - - - - - - - -
23/02:00pm 16.9 S 5 11 1027.9 - - - - - - - - -
23/01:30pm 16.7 SW 8 14 1028.0 - - - - - - - - -
23/01:00pm 16.5 SW 9 13 1028.0 - - - - - - - - -
23/12:30pm 16.7 SSW 9 14 1028.0 - - - - - - - - -
23/12:00pm 16.0 SW 10 16 1028.3 - - - - - - - - -
23/11:30am 15.9 SW 11 16 1028.7 - - - - - - - - -
23/11:00am 15.6 SW 9 14 1029.1 - - - - - - - - -
23/10:30am 15.0 SW 10 15 1029.3 - - - - - - - - -
23/10:00am 14.9 SW 8 13 1029.3 - - - - - - - - -
23/09:30am 14.5 WSW 10 14 1029.0 - - - - - - - - -
23/09:00am 14.3 WSW 11 15 1028.6 - - - - - - - - -
23/08:30am 13.9 WSW 11 16 1028.5 - - - - - - - - -
23/08:00am 13.2 WSW 10 14 1028.3 - - - - - - - - -
23/07:30am 12.9 WSW 11 14 1027.9 - - - - - - - - -
23/07:00am 12.9 WSW 13 17 1027.8 - - - - - - - - -
23/06:30am 13.0 WSW 12 16 1027.5 - - - - - - - - -
23/06:00am 12.8 WSW 11 16 1027.2 - - - - - - - - -
23/05:30am 12.8 WSW 11 15 1026.9 - - - - - - - - -
23/05:00am 13.1 WSW 11 16 1026.8 - - - - - - - - -
23/04:30am 13.2 WSW 12 17 1026.7 - - - - - - - - -
23/04:00am 13.5 WSW 12 17 1026.6 - - - - - - - - -
23/03:30am 13.4 WSW 14 21 1026.4 - - - - - - - - -
23/03:00am 13.4 WSW 13 19 1026.4 - - - - - - - - -
23/02:30am 13.4 SW 12 18 1026.6 - - - - - - - - -
23/02:00am 13.2 SW 11 19 1026.6 - - - - - - - - -
23/01:30am 13.3 SW 12 19 1026.5 - - - - - - - - -
23/01:00am 13.1 SW 11 18 1026.4 - - - - - - - - -
23/12:30am 12.7 SW 12 20 1026.4 - - - - - - - - -
23/12:00am 12.4 SW 12 17 1026.4 - - - - - - - - -
 
Date/Time
EST
Temp

°C
Wind Pressure Rain
since 9am
mm
Weather Cloud Vis
km
Sea
Height
m
Swell
Dir
 
Speed
knots
Gust
knots
hPa Trend Height
m
Period
s
Dir
22/11:30pm 12.3 SW 12 19 1026.4 - - - - - - - - -
22/11:00pm 12.4 SW 10 15 1026.4 - - - - - - - - -
22/10:30pm 12.8 SW 12 19 1026.3 - - - - - - - - -
22/10:00pm 13.1 SW 10 17 1026.1 - - - - - - - - -
22/09:30pm 13.2 SW 10 15 1025.9 - - - - - - - - -
22/09:00pm 13.4 SW 10 15 1025.5 - - - - - - - - -
22/08:30pm 13.4 WSW 10 17 1025.4 - - - - - - - - -
22/08:00pm 13.2 WSW 12 17 1025.3 - - - - - - - - -
22/07:30pm 13.0 WSW 12 16 1025.0 - - - - - - - - -
22/07:00pm 13.1 WSW 13 21 1024.6 - - - - - - - - -
22/06:30pm 13.8 WSW 12 18 1024.0 - - - - - - - - -
22/06:00pm 14.8 SW 12 21 1023.7 - - - - - - - - -
22/05:30pm 14.2 SW 10 21 1023.5 - - - - - - - - -
22/05:00pm 14.2 SSW 14 26 1023.2 - - - - - - - - -
22/04:30pm 13.3 SW 15 26 1022.6 - - - - - - - - -
22/04:22pm 13.5 SW 15 26 1022.8 - - - - - - - - -
22/04:00pm 14.3 SSW 12 27 1022.4 - - - - - - - - -
22/03:30pm 13.8 SW 14 24 1021.9 - - - - - - - - -
22/03:13pm 14.6 SW 15 26 1021.7 - - - - - - - - -
22/03:00pm 15.5 SSW 13 22 1021.4 - - - - - - - - -
22/02:43pm 14.9 SW 15 27 1021.4 - - - - - - - - -
22/02:30pm 14.3 SSW 13 25 1021.2 - - - - - - - - -
22/02:10pm 15.1 S 15 27 1021.1 - - - - - - - - -
22/02:00pm 16.3 S 11 21 1020.7 - - - - - - - - -

Other Formats:

Comma delimited format used in spreadsheet applications
http://www.bom.gov.au/fwo/IDN60701/IDN60701.95745.axf

JavaScript Object Notation format (JSON) in row-major order
http://www.bom.gov.au/fwo/IDN60701/IDN60701.95745.json